Air Navigation Services of Czech Republic  
Last data update:  25.08.2016 18:10:07 UTC Česká verze
   METEO Page displayed:  25.08.2016 18:23:19 UTC  
help
METAR EDDB 251750Z 11009KT CAVOK 25/11 Q1019 NOSIG=
METAR EDDC 251750Z 13005KT CAVOK 24/12 Q1020 NOSIG=
METAR EDDE 251750Z 12004KT 090V150 CAVOK 28/07 Q1018 NOSIG=
METAR EDDF 251750Z 09006KT CAVOK 31/12 Q1015 NOSIG=
METAR EDDM 251750Z 07005KT CAVOK 24/10 Q1019 NOSIG=
METAR EDDN 251750Z 08004KT 040V100 CAVOK 27/11 Q1018 NOSIG=
METAR EDDP 251750Z 10010KT CAVOK 27/14 Q1018 NOSIG=
METAR EDDT 251750Z 13012KT CAVOK 27/10 Q1019 NOSIG=
METAR EDQM 251750Z 13004KT CAVOK 24/07 Q1021=
METAR EPBY 251800Z 14001KT CAVOK 22/15 Q1023 =
METAR EPGD 251800Z 15004KT 120V200 CAVOK 22/14 Q1023 =
METAR EPKK 251800Z 07005KT CAVOK 20/13 Q1024 =
METAR EPKT 251800Z 06004KT CAVOK 18/12 Q1024 =
METAR EPLL 251800Z 08005KT CAVOK 21/12 Q1024 =
METAR EPPO 251800Z 13005KT CAVOK 23/13 Q1023 =
METAR EPRZ 251800Z 03005KT CAVOK 19/12 Q1024 =
METAR EPWA 251800Z 11005KT CAVOK 20/12 Q1025 NOSIG=
METAR EPWR 251800Z 12007KT CAVOK 20/13 Q1022 =
METAR LHBP 251800Z 06004KT 020V090 CAVOK 23/13 Q1022 NOSIG=
METAR LHSM 251545Z 07004KT 9999 FEW040 25/15 Q1022=
METAR LKCV 251800Z 09005KT CAVOK 24/11 Q1021 NOSIG=
METAR LKKB 251800Z 08006KT CAVOK 23/12 Q1021 NOSIG=
METAR LKKU 251600Z 02004KT 270V050 CAVOK 27/11 Q1021=
METAR LKKV 251800Z 08006KT CAVOK 22/12 Q1021 RMK REG QNH 1019=
METAR LKLN 251800Z AUTO 13003KT CAVOK 24/12 Q1021=
METAR LKMT 251800Z 03006KT CAVOK 19/14 Q1023 NOSIG RMK REG QNH 1019=
METAR LKNA 251800Z 09005KT CAVOK 22/10 Q1023 NOSIG=
METAR LKPD 251800Z 10007KT CAVOK 25/08 Q1021 NOSIG=
METAR LKPR 251800Z 09008KT CAVOK 22/12 Q1021 NOSIG RMK REG QNH 1019=
METAR LKTB 251800Z 06005KT CAVOK 23/11 Q1022 NOSIG RMK REG QNH 1019=
METAR LKVO NIL
METAR LOWI 251750Z 36003KT CAVOK 25/16 Q1018 NOSIG=
METAR LOWL 251750Z 12008KT CAVOK 24/14 Q1019 NOSIG=
METAR LOWS 251750Z 30006KT CAVOK 24/17 Q1018 NOSIG=
METAR LOWW 251750Z 11003KT 080V140 CAVOK 22/14 Q1022 NOSIG=
METAR LZIB 251800Z 13005KT CAVOK 22/13 Q1022 NOSIG=
METAR LZKZ 251800Z 35008KT CAVOK 20/12 Q1023=
METAR LZPP 251800Z 10006KT CAVOK 21/15 Q1022=
METAR LZSL 251800Z 30004KT 9999 FEW062 19/15 Q1023=
METAR LZTT 251800Z 02005KT 9999 FEW043 14/11 Q1025=
METAR LZZI 251800Z 13004KT CAVOK 19/14 Q1022=